sensor_id;sensor_type;location;lat;lon;timestamp;pressure;altitude;pressure_sealevel;temperature;humidity
67842;BME280;54642;59.126;37.876;2023-02-02T00:01:57;99031.25;;;0.21;79.31
67842;BME280;54642;59.126;37.876;2023-02-02T00:04:25;99021.94;;;0.22;79.34
67842;BME280;54642;59.126;37.876;2023-02-02T00:06:51;99027.88;;;0.22;79.26
67842;BME280;54642;59.126;37.876;2023-02-02T00:09:19;99010.81;;;0.18;79.46
67842;BME280;54642;59.126;37.876;2023-02-02T00:11:46;99016.75;;;0.17;79.41
67842;BME280;54642;59.126;37.876;2023-02-02T00:14:13;99025.34;;;0.22;79.52
67842;BME280;54642;59.126;37.876;2023-02-02T00:16:44;99037.22;;;0.23;79.54
67842;BME280;54642;59.126;37.876;2023-02-02T00:19:16;98981.53;;;-0.03;79.56
67842;BME280;54642;59.126;37.876;2023-02-02T00:21:43;98994.34;;;0.01;79.55
67842;BME280;54642;59.126;37.876;2023-02-02T00:24:11;98931.69;;;-0.32;79.22
67842;BME280;54642;59.126;37.876;2023-02-02T00:26:39;99000.34;;;0.04;79.53
67842;BME280;54642;59.126;37.876;2023-02-02T00:29:06;99033.88;;;0.24;79.54
67842;BME280;54642;59.126;37.876;2023-02-02T00:31:33;99021.03;;;0.18;79.73
67842;BME280;54642;59.126;37.876;2023-02-02T00:33:59;99021.94;;;0.22;79.47
67842;BME280;54642;59.126;37.876;2023-02-02T00:36:24;99030.47;;;0.24;79.50
67842;BME280;54642;59.126;37.876;2023-02-02T00:38:50;99030.50;;;0.25;79.47
67842;BME280;54642;59.126;37.876;2023-02-02T00:41:18;98972.91;;;-0.09;79.32
67842;BME280;54642;59.126;37.876;2023-02-02T00:43:44;99029.53;;;0.20;79.55
67842;BME280;54642;59.126;37.876;2023-02-02T00:46:30;98932.56;;;-0.32;79.34
67842;BME280;54642;59.126;37.876;2023-02-02T00:48:56;99026.97;;;0.18;79.42
67842;BME280;54642;59.126;37.876;2023-02-02T00:51:22;99015.78;;;0.12;79.71
67842;BME280;54642;59.126;37.876;2023-02-02T00:53:47;99032.06;;;0.18;79.50
67842;BME280;54642;59.126;37.876;2023-02-02T00:56:13;98991.63;;;-0.07;79.44
67842;BME280;54642;59.126;37.876;2023-02-02T00:58:39;99027.78;;;0.17;79.48
67842;BME280;54642;59.126;37.876;2023-02-02T01:01:14;99043.03;;;0.14;79.58
67842;BME280;54642;59.126;37.876;2023-02-02T01:03:40;99017.44;;;0.10;79.57
67842;BME280;54642;59.126;37.876;2023-02-02T01:06:06;99021.53;;;0.03;79.82
67842;BME280;54642;59.126;37.876;2023-02-02T01:08:32;99019.03;;;0.05;79.67
67842;BME280;54642;59.126;37.876;2023-02-02T01:10:59;99027.72;;;0.13;79.81
67842;BME280;54642;59.126;37.876;2023-02-02T01:13:24;99008.91;;;0.08;80.17
67842;BME280;54642;59.126;37.876;2023-02-02T01:15:58;99022.59;;;0.13;80.07
67842;BME280;54642;59.126;37.876;2023-02-02T01:18:25;99014.94;;;0.11;79.81
67842;BME280;54642;59.126;37.876;2023-02-02T01:21:03;99008.03;;;0.06;79.94
67842;BME280;54642;59.126;37.876;2023-02-02T01:23:29;98997.63;;;-0.04;79.89
67842;BME280;54642;59.126;37.876;2023-02-02T01:25:59;99014.03;;;0.09;79.98
67842;BME280;54642;59.126;37.876;2023-02-02T01:28:26;99018.41;;;0.15;80.04
67842;BME280;54642;59.126;37.876;2023-02-02T01:30:53;99012.44;;;0.14;80.09
67842;BME280;54642;59.126;37.876;2023-02-02T01:33:21;98965.00;;;-0.22;80.11
67842;BME280;54642;59.126;37.876;2023-02-02T01:35:49;98961.63;;;-0.22;80.11
67842;BME280;54642;59.126;37.876;2023-02-02T01:38:15;99019.19;;;0.12;80.14
67842;BME280;54642;59.126;37.876;2023-02-02T01:40:49;99019.19;;;0.12;80.37
67842;BME280;54642;59.126;37.876;2023-02-02T01:43:27;98947.78;;;-0.35;80.32
67842;BME280;54642;59.126;37.876;2023-02-02T01:45:55;98988.91;;;-0.15;80.32
67842;BME280;54642;59.126;37.876;2023-02-02T01:48:28;99015.59;;;0.03;80.38
67842;BME280;54642;59.126;37.876;2023-02-02T01:51:00;99023.22;;;0.01;80.39
67842;BME280;54642;59.126;37.876;2023-02-02T01:53:28;99004.47;;;-0.03;80.49
67842;BME280;54642;59.126;37.876;2023-02-02T01:55:55;99018.25;;;0.07;80.77
67842;BME280;54642;59.126;37.876;2023-02-02T01:58:27;98969.34;;;-0.17;80.47
67842;BME280;54642;59.126;37.876;2023-02-02T02:00:54;99014.03;;;0.09;80.67
67842;BME280;54642;59.126;37.876;2023-02-02T02:03:21;99006.38;;;0.08;80.40
67842;BME280;54642;59.126;37.876;2023-02-02T02:05:53;99013.13;;;0.06;80.35
67842;BME280;54642;59.126;37.876;2023-02-02T02:08:23;99022.44;;;0.05;80.44
67842;BME280;54642;59.126;37.876;2023-02-02T02:10:51;98995.03;;;-0.07;80.45
67842;BME280;54642;59.126;37.876;2023-02-02T02:13:19;99018.25;;;0.07;80.39
67842;BME280;54642;59.126;37.876;2023-02-02T02:16:03;99024.09;;;0.03;80.47
67842;BME280;54642;59.126;37.876;2023-02-02T02:28:14;99029.94;;;-0.03;80.28
67842;BME280;54642;59.126;37.876;2023-02-02T02:31:07;99022.16;;;-0.09;80.87
67842;BME280;54642;59.126;37.876;2023-02-02T02:39:10;99045.22;;;-0.03;80.50
67842;BME280;54642;59.126;37.876;2023-02-02T02:41:45;99030.75;;;-0.04;80.91
67842;BME280;54642;59.126;37.876;2023-02-02T02:44:15;99036.56;;;-0.09;80.67
67842;BME280;54642;59.126;37.876;2023-02-02T02:46:42;98939.53;;;-0.63;80.58
67842;BME280;54642;59.126;37.876;2023-02-02T02:49:10;98985.06;;;-0.37;80.63
67842;BME280;54642;59.126;37.876;2023-02-02T02:51:49;99035.88;;;-0.02;80.64
67842;BME280;54642;59.126;37.876;2023-02-02T02:55:06;99004.94;;;-0.21;80.52
67842;BME280;54642;59.126;37.876;2023-02-02T02:57:38;98994.63;;;-0.25;80.47
67842;BME280;54642;59.126;37.876;2023-02-02T03:00:15;99040.22;;;0.02;80.45
67842;BME280;54642;59.126;37.876;2023-02-02T03:08:09;99051.19;;;-0.01;80.59
67842;BME280;54642;59.126;37.876;2023-02-02T03:10:38;99032.34;;;-0.09;80.53
67842;BME280;54642;59.126;37.876;2023-02-02T03:13:07;99045.06;;;-0.10;80.64
67842;BME280;54642;59.126;37.876;2023-02-02T03:15:33;99021.03;;;-0.22;80.67
67842;BME280;54642;59.126;37.876;2023-02-02T03:17:59;98989.31;;;-0.37;80.54
67842;BME280;54642;59.126;37.876;2023-02-02T03:20:25;99038.97;;;-0.17;80.44
67842;BME280;54642;59.126;37.876;2023-02-02T03:22:51;99059.53;;;-0.08;80.64
67842;BME280;54642;59.126;37.876;2023-02-02T03:25:17;99051.06;;;-0.07;80.57
67842;BME280;54642;59.126;37.876;2023-02-02T03:27:43;99008.03;;;-0.35;80.52
67842;BME280;54642;59.126;37.876;2023-02-02T03:30:11;99005.34;;;-0.40;80.57
67842;BME280;54642;59.126;37.876;2023-02-02T03:32:38;99065.44;;;-0.10;80.48
67842;BME280;54642;59.126;37.876;2023-02-02T03:35:04;99052.59;;;-0.15;80.55
67842;BME280;54642;59.126;37.876;2023-02-02T03:37:31;99057.59;;;-0.18;80.50
67842;BME280;54642;59.126;37.876;2023-02-02T03:39:56;99065.38;;;-0.12;80.56
67842;BME280;54642;59.126;37.876;2023-02-02T03:42:22;99058.28;;;-0.25;80.58
67842;BME280;54642;59.126;37.876;2023-02-02T03:44:48;99018.06;;;-0.42;80.53
67842;BME280;54642;59.126;37.876;2023-02-02T03:47:14;99078.84;;;-0.17;80.43
67842;BME280;54642;59.126;37.876;2023-02-02T03:49:40;99072.03;;;-0.18;80.57
67842;BME280;54642;59.126;37.876;2023-02-02T03:52:05;99072.06;;;-0.17;80.55
67842;BME280;54642;59.126;37.876;2023-02-02T03:54:31;99069.31;;;-0.26;80.56
67842;BME280;54642;59.126;37.876;2023-02-02T03:56:57;99072.84;;;-0.21;80.65
67842;BME280;54642;59.126;37.876;2023-02-02T03:59:23;99072.78;;;-0.23;80.59
67842;BME280;54642;59.126;37.876;2023-02-02T04:01:48;99072.75;;;-0.24;80.37
67842;BME280;54642;59.126;37.876;2023-02-02T04:04:15;99065.72;;;-0.34;80.64
67842;BME280;54642;59.126;37.876;2023-02-02T04:06:41;99006.41;;;-0.68;80.57
67842;BME280;54642;59.126;37.876;2023-02-02T04:09:07;99087.03;;;-0.31;80.61
67842;BME280;54642;59.126;37.876;2023-02-02T04:11:32;99080.44;;;-0.23;80.44
67842;BME280;54642;59.126;37.876;2023-02-02T04:13:58;99080.22;;;-0.32;80.54
67842;BME280;54642;59.126;37.876;2023-02-02T04:16:24;99082.03;;;-0.26;nan
67842;BME280;54642;59.126;37.876;2023-02-02T04:18:50;99089.41;;;-0.39;80.51
67842;BME280;54642;59.126;37.876;2023-02-02T04:21:16;99081.13;;;-0.30;80.75
67842;BME280;54642;59.126;37.876;2023-02-02T04:23:42;99089.66;;;-0.28;80.64
67842;BME280;54642;59.126;37.876;2023-02-02T04:26:08;99092.09;;;-0.31;80.45
67842;BME280;54642;59.126;37.876;2023-02-02T04:28:33;99087.88;;;-0.32;80.49
67842;BME280;54642;59.126;37.876;2023-02-02T04:30:59;99074.88;;;-0.43;80.53
67842;BME280;54642;59.126;37.876;2023-02-02T04:33:26;99090.28;;;-0.36;80.56
67842;BME280;54642;59.126;37.876;2023-02-02T04:35:52;99091.06;;;-0.41;80.50
67842;BME280;54642;59.126;37.876;2023-02-02T04:38:18;99097.84;;;-0.40;80.45
67842;BME280;54642;59.126;37.876;2023-02-02T04:40:46;99028.13;;;-0.83;80.51
67842;BME280;54642;59.126;37.876;2023-02-02T04:43:13;99108.91;;;-0.39;80.49
67842;BME280;54642;59.126;37.876;2023-02-02T04:45:39;99108.91;;;-0.39;80.53
67842;BME280;54642;59.126;37.876;2023-02-02T04:48:07;99099.66;;;-0.35;80.56
67842;BME280;54642;59.126;37.876;2023-02-02T04:50:33;99099.03;;;-0.25;80.68
67842;BME280;54642;59.126;37.876;2023-02-02T04:52:59;99101.81;;;-0.16;80.58
67842;BME280;54642;59.126;37.876;2023-02-02T04:55:25;99106.28;;;-0.04;80.46
67842;BME280;54642;59.126;37.876;2023-02-02T04:57:51;99108.97;;;0.01;80.04
67842;BME280;54642;59.126;37.876;2023-02-02T05:00:17;99079.91;;;-0.08;80.10
67842;BME280;54642;59.126;37.876;2023-02-02T05:02:43;99118.56;;;0.14;79.96
67842;BME280;54642;59.126;37.876;2023-02-02T05:05:13;99104.69;;;-0.01;79.79
67842;BME280;54642;59.126;37.876;2023-02-02T05:07:39;99050.66;;;-0.25;79.76
67842;BME280;54642;59.126;37.876;2023-02-02T05:10:06;99121.97;;;0.13;79.77
67842;BME280;54642;59.126;37.876;2023-02-02T05:12:32;99056.31;;;-0.39;79.67
67842;BME280;54642;59.126;37.876;2023-02-02T05:14:58;99129.19;;;-0.06;79.80
67842;BME280;54642;59.126;37.876;2023-02-02T05:17:26;99066.44;;;-0.40;79.84
67842;BME280;54642;59.126;37.876;2023-02-02T05:19:52;99062.97;;;-0.44;80.04
67842;BME280;54642;59.126;37.876;2023-02-02T05:22:18;99086.72;;;-0.45;79.82
67842;BME280;54642;59.126;37.876;2023-02-02T05:24:43;99119.63;;;-0.14;80.16
67842;BME280;54642;59.126;37.876;2023-02-02T05:27:09;99102.66;;;-0.15;79.98
67842;BME280;54642;59.126;37.876;2023-02-02T05:29:35;99111.50;;;0.01;79.91
67842;BME280;54642;59.126;37.876;2023-02-02T05:32:01;99119.00;;;-0.06;79.90
67842;BME280;54642;59.126;37.876;2023-02-02T05:34:27;99118.78;;;-0.15;79.66
67842;BME280;54642;59.126;37.876;2023-02-02T05:36:53;99122.13;;;-0.17;79.89
67842;BME280;54642;59.126;37.876;2023-02-02T05:39:19;99072.13;;;-0.52;80.13
67842;BME280;54642;59.126;37.876;2023-02-02T05:41:45;99126.34;;;-0.20;80.06
67842;BME280;54642;59.126;37.876;2023-02-02T05:44:12;99106.66;;;-0.25;80.08
67842;BME280;54642;59.126;37.876;2023-02-02T05:46:38;99137.28;;;-0.22;79.91
67842;BME280;54642;59.126;37.876;2023-02-02T05:49:04;99127.91;;;-0.25;79.99
67842;BME280;54642;59.126;37.876;2023-02-02T05:51:53;99132.88;;;-0.29;80.15
67842;BME280;54642;59.126;37.876;2023-02-02T05:54:22;99130.25;;;-0.32;80.06
67842;BME280;54642;59.126;37.876;2023-02-02T05:56:50;99119.94;;;-0.39;80.25
67842;BME280;54642;59.126;37.876;2023-02-02T05:59:17;99112.19;;;-0.43;80.38
67842;BME280;54642;59.126;37.876;2023-02-02T06:01:47;99063.88;;;-0.78;80.15
67842;BME280;54642;59.126;37.876;2023-02-02T06:04:13;99134.38;;;-0.39;80.08
67842;BME280;54642;59.126;37.876;2023-02-02T06:06:40;99077.63;;;-0.70;80.10
67842;BME280;54642;59.126;37.876;2023-02-02T06:09:07;99086.19;;;-0.66;80.17
67842;BME280;54642;59.126;37.876;2023-02-02T06:11:33;99098.22;;;-0.61;80.30
67842;BME280;54642;59.126;37.876;2023-02-02T06:13:59;99068.03;;;-0.82;79.99
67842;BME280;54642;59.126;37.876;2023-02-02T06:16:25;99154.00;;;-0.33;80.05
67842;BME280;54642;59.126;37.876;2023-02-02T06:18:51;99150.66;;;-0.31;80.20
67842;BME280;54642;59.126;37.876;2023-02-02T06:21:18;99148.03;;;-0.35;80.00
67842;BME280;54642;59.126;37.876;2023-02-02T06:23:50;99140.22;;;-0.42;80.12
67842;BME280;54642;59.126;37.876;2023-02-02T06:26:16;99090.31;;;-0.71;80.28
67842;BME280;54642;59.126;37.876;2023-02-02T06:28:47;99134.31;;;-0.41;80.02
67842;BME280;54642;59.126;37.876;2023-02-02T06:31:14;99150.56;;;-0.35;80.10
67842;BME280;54642;59.126;37.876;2023-02-02T06:33:54;99158.38;;;-0.28;80.11
67842;BME280;54642;59.126;37.876;2023-02-02T06:36:22;99153.25;;;-0.29;80.06
67842;BME280;54642;59.126;37.876;2023-02-02T06:38:49;99162.75;;;-0.22;80.03
67842;BME280;54642;59.126;37.876;2023-02-02T06:41:16;99146.47;;;-0.30;79.95
67842;BME280;54642;59.126;37.876;2023-02-02T06:43:42;99156.81;;;-0.23;79.90
67842;BME280;54642;59.126;37.876;2023-02-02T06:46:08;99158.56;;;-0.20;79.94
67842;BME280;54642;59.126;37.876;2023-02-02T06:48:33;99158.47;;;-0.25;79.68
67842;BME280;54642;59.126;37.876;2023-02-02T06:50:59;99167.81;;;-0.24;79.62
67842;BME280;54642;59.126;37.876;2023-02-02T06:53:26;99181.25;;;-0.29;79.76
67842;BME280;54642;59.126;37.876;2023-02-02T06:55:56;99168.44;;;-0.34;79.75
67842;BME280;54642;59.126;37.876;2023-02-02T06:58:22;99178.00;;;-0.24;79.83
67842;BME280;54642;59.126;37.876;2023-02-02T07:00:48;99164.84;;;-0.06;79.79
67842;BME280;54642;59.126;37.876;2023-02-02T07:03:15;99148.22;;;0.10;79.61
67842;BME280;54642;59.126;37.876;2023-02-02T07:05:41;99104.47;;;-0.10;79.51
67842;BME280;54642;59.126;37.876;2023-02-02T07:08:07;99178.53;;;0.37;79.49
67842;BME280;54642;59.126;37.876;2023-02-02T07:10:35;99171.13;;;0.47;79.31
67842;BME280;54642;59.126;37.876;2023-02-02T07:13:01;99179.59;;;0.47;79.21
67842;BME280;54642;59.126;37.876;2023-02-02T07:15:27;99175.22;;;0.40;79.03
67842;BME280;54642;59.126;37.876;2023-02-02T07:17:53;99176.22;;;0.47;79.03
67842;BME280;54642;59.126;37.876;2023-02-02T07:20:19;99166.13;;;0.53;79.07
67842;BME280;54642;59.126;37.876;2023-02-02T07:22:46;99177.25;;;0.56;78.68
67842;BME280;54642;59.126;37.876;2023-02-02T07:25:13;99155.03;;;0.51;78.95
67842;BME280;54642;59.126;37.876;2023-02-02T07:27:45;99152.75;;;0.63;78.81
67842;BME280;54642;59.126;37.876;2023-02-02T07:30:22;99029.06;;;-0.03;78.65
67842;BME280;54642;59.126;37.876;2023-02-02T07:32:50;99128.78;;;0.55;78.27
67842;BME280;54642;59.126;37.876;2023-02-02T07:35:16;99109.72;;;0.37;78.26
67842;BME280;54642;59.126;37.876;2023-02-02T07:37:42;99172.78;;;0.89;78.38
67842;BME280;54642;59.126;37.876;2023-02-02T07:40:09;99168.38;;;0.80;78.18
67842;BME280;54642;59.126;37.876;2023-02-02T07:42:35;99177.66;;;0.76;78.15
67842;BME280;54642;59.126;37.876;2023-02-02T07:45:01;99168.16;;;0.69;78.43
67842;BME280;54642;59.126;37.876;2023-02-02T07:47:31;99171.59;;;0.71;77.95
67842;BME280;54642;59.126;37.876;2023-02-02T07:49:58;99175.91;;;0.74;77.85
67842;BME280;54642;59.126;37.876;2023-02-02T07:52:24;99135.53;;;0.53;77.95
67842;BME280;54642;59.126;37.876;2023-02-02T07:54:49;99186.25;;;0.82;77.91
67842;BME280;54642;59.126;37.876;2023-02-02T07:57:16;99176.94;;;0.84;77.94
67842;BME280;54642;59.126;37.876;2023-02-02T07:59:42;99171.81;;;0.81;77.98
67842;BME280;54642;59.126;37.876;2023-02-02T08:02:08;99184.44;;;0.76;77.53
67842;BME280;54642;59.126;37.876;2023-02-02T08:04:34;99184.94;;;0.58;77.84
67842;BME280;54642;59.126;37.876;2023-02-02T08:07:02;99178.53;;;0.36;77.91
67842;BME280;54642;59.126;37.876;2023-02-02T08:09:28;99183.31;;;0.22;78.18
67842;BME280;54642;59.126;37.876;2023-02-02T08:11:55;99190.09;;;0.22;78.22
67842;BME280;54642;59.126;37.876;2023-02-02T08:14:27;99204.47;;;0.18;78.44
67842;BME280;54642;59.126;37.876;2023-02-02T08:16:54;99148.56;;;-0.12;78.42
67842;BME280;54642;59.126;37.876;2023-02-02T08:19:20;99183.88;;;0.10;78.43
67842;BME280;54642;59.126;37.876;2023-02-02T08:21:47;99188.13;;;0.10;78.48
67842;BME280;54642;59.126;37.876;2023-02-02T08:24:12;99201.78;;;0.13;78.55
67842;BME280;54642;59.126;37.876;2023-02-02T08:26:38;99190.34;;;-0.04;78.44
67842;BME280;54642;59.126;37.876;2023-02-02T08:29:05;99205.88;;;0.07;78.49
67842;BME280;54642;59.126;37.876;2023-02-02T08:31:38;99205.00;;;0.05;78.61
67842;BME280;54642;59.126;37.876;2023-02-02T08:34:08;99204.00;;;-0.01;78.52
67842;BME280;54642;59.126;37.876;2023-02-02T08:36:35;99181.47;;;-0.20;78.49
67842;BME280;54642;59.126;37.876;2023-02-02T08:39:01;99215.72;;;-0.07;78.60
67842;BME280;54642;59.126;37.876;2023-02-02T08:41:28;99193.31;;;-0.22;78.62
67842;BME280;54642;59.126;37.876;2023-02-02T08:43:54;99207.91;;;-0.15;78.61
67842;BME280;54642;59.126;37.876;2023-02-02T08:46:21;99201.78;;;-0.23;78.66
67842;BME280;54642;59.126;37.876;2023-02-02T08:48:47;99207.09;;;-0.14;78.81
67842;BME280;54642;59.126;37.876;2023-02-02T08:51:15;99203.56;;;-0.19;78.48
67842;BME280;54642;59.126;37.876;2023-02-02T08:53:42;99199.97;;;-0.27;78.68
67842;BME280;54642;59.126;37.876;2023-02-02T08:56:16;99221.50;;;-0.14;78.57
67842;BME280;54642;59.126;37.876;2023-02-02T08:58:54;99197.59;;;-0.21;78.72
67842;BME280;54642;59.126;37.876;2023-02-02T09:01:22;99207.03;;;-0.17;78.69
67842;BME280;54642;59.126;37.876;2023-02-02T09:03:55;99211.19;;;-0.21;78.44
67842;BME280;54642;59.126;37.876;2023-02-02T09:06:27;99213.78;;;-0.19;78.61
67842;BME280;54642;59.126;37.876;2023-02-02T09:08:53;99217.22;;;-0.17;78.77
67842;BME280;54642;59.126;37.876;2023-02-02T09:11:19;99219.78;;;-0.15;78.59
67842;BME280;54642;59.126;37.876;2023-02-02T09:13:47;99211.13;;;-0.22;78.88
67842;BME280;54642;59.126;37.876;2023-02-02T09:16:17;99208.69;;;-0.19;78.61
67842;BME280;54642;59.126;37.876;2023-02-02T09:18:44;99191.47;;;-0.28;78.69
67842;BME280;54642;59.126;37.876;2023-02-02T09:21:14;99206.13;;;-0.19;78.75
67842;BME280;54642;59.126;37.876;2023-02-02T09:23:42;99031.41;;;-1.22;78.62
67842;BME280;54642;59.126;37.876;2023-02-02T09:28:38;99213.97;;;-0.10;78.84
67842;BME280;54642;59.126;37.876;2023-02-02T09:31:07;99101.94;;;-0.81;78.60
67842;BME280;54642;59.126;37.876;2023-02-02T09:33:33;99207.31;;;-0.05;78.74
67842;BME280;54642;59.126;37.876;2023-02-02T09:36:16;99191.88;;;-0.12;78.89
67842;BME280;54642;59.126;37.876;2023-02-02T09:38:43;99206.47;;;-0.05;78.68
67842;BME280;54642;59.126;37.876;2023-02-02T09:49:36;99204.22;;;0.09;78.41
67842;BME280;54642;59.126;37.876;2023-02-02T09:52:13;99204.16;;;0.06;78.33
67842;BME280;54642;59.126;37.876;2023-02-02T09:54:46;99158.59;;;-0.18;78.53
67842;BME280;54642;59.126;37.876;2023-02-02T09:57:18;99203.44;;;0.11;78.59
67842;BME280;54642;59.126;37.876;2023-02-02T09:59:48;99206.00;;;0.11;78.39
67842;BME280;54642;59.126;37.876;2023-02-02T10:02:32;99208.50;;;0.10;78.51
67842;BME280;54642;59.126;37.876;2023-02-02T10:05:12;99193.97;;;0.06;78.21
67842;BME280;54642;59.126;37.876;2023-02-02T10:07:45;99204.38;;;0.15;78.38
67842;BME280;54642;59.126;37.876;2023-02-02T10:10:22;99224.16;;;0.27;77.93
67842;BME280;54642;59.126;37.876;2023-02-02T10:20:58;99203.41;;;0.48;78.06
67842;BME280;54642;59.126;37.876;2023-02-02T10:23:28;99203.31;;;0.45;77.94
67842;BME280;54642;59.126;37.876;2023-02-02T10:32:20;99195.63;;;0.42;77.61
67842;BME280;54642;59.126;37.876;2023-02-02T10:37:59;99195.44;;;0.32;77.78
67842;BME280;54642;59.126;37.876;2023-02-02T10:46:16;99215.28;;;0.47;77.89
67842;BME280;54642;59.126;37.876;2023-02-02T10:48:46;99205.19;;;0.50;77.89
67842;BME280;54642;59.126;37.876;2023-02-02T10:51:28;99205.13;;;0.49;77.67
67842;BME280;54642;59.126;37.876;2023-02-02T10:53:59;99149.06;;;0.09;77.74
67842;BME280;54642;59.126;37.876;2023-02-02T10:56:36;99228.81;;;0.45;77.53
67842;BME280;54642;59.126;37.876;2023-02-02T10:59:21;99164.53;;;0.18;77.66
67842;BME280;54642;59.126;37.876;2023-02-02T11:01:51;99183.41;;;0.27;77.79
67842;BME280;54642;59.126;37.876;2023-02-02T11:04:17;99207.00;;;0.56;77.56
67842;BME280;54642;59.126;37.876;2023-02-02T11:07:03;99207.06;;;0.59;77.61
67842;BME280;54642;59.126;37.876;2023-02-02T11:09:30;99206.19;;;0.59;77.39
67842;BME280;54642;59.126;37.876;2023-02-02T11:17:21;99184.66;;;0.46;77.65
67842;BME280;54642;59.126;37.876;2023-02-02T11:19:48;99212.91;;;0.55;77.57
67842;BME280;54642;59.126;37.876;2023-02-02T11:22:37;99211.13;;;0.51;77.63
67842;BME280;54642;59.126;37.876;2023-02-02T11:25:08;99215.34;;;0.49;77.62
67842;BME280;54642;59.126;37.876;2023-02-02T11:27:47;99181.78;;;0.30;77.65
67842;BME280;54642;59.126;37.876;2023-02-02T11:30:20;99225.47;;;0.46;77.47
67842;BME280;54642;59.126;37.876;2023-02-02T11:32:49;99219.50;;;0.45;77.67
67842;BME280;54642;59.126;37.876;2023-02-02T11:35:23;99162.56;;;0.07;77.63
67842;BME280;54642;59.126;37.876;2023-02-02T11:37:56;99160.03;;;0.07;77.67
67842;BME280;54642;59.126;37.876;2023-02-02T11:40:35;99221.09;;;0.40;77.43
67842;BME280;54642;59.126;37.876;2023-02-02T11:43:12;99160.09;;;0.10;77.75
67842;BME280;54642;59.126;37.876;2023-02-02T11:45:41;99211.91;;;0.47;77.79
67842;BME280;54642;59.126;37.876;2023-02-02T11:48:25;99217.81;;;0.46;77.60
67842;BME280;54642;59.126;37.876;2023-02-02T11:50:54;99212.66;;;0.44;77.86
67842;BME280;54642;59.126;37.876;2023-02-02T11:53:38;99216.72;;;0.34;77.67
67842;BME280;54642;59.126;37.876;2023-02-02T11:56:10;99210.84;;;0.38;77.56
67842;BME280;54642;59.126;37.876;2023-02-02T11:58:47;99226.97;;;0.37;77.36
67842;BME280;54642;59.126;37.876;2023-02-02T12:01:32;99230.44;;;0.40;77.71
67842;BME280;54642;59.126;37.876;2023-02-02T12:04:01;99180.56;;;0.13;77.72
67842;BME280;54642;59.126;37.876;2023-02-02T12:06:35;99218.63;;;0.43;77.81
67842;BME280;54642;59.126;37.876;2023-02-02T12:09:10;99218.69;;;0.48;77.52
67842;BME280;54642;59.126;37.876;2023-02-02T12:14:21;99236.47;;;0.45;77.60
67842;BME280;54642;59.126;37.876;2023-02-02T12:25:02;99235.38;;;0.33;77.68
67842;BME280;54642;59.126;37.876;2023-02-02T12:30:43;99245.47;;;0.30;77.59
67842;BME280;54642;59.126;37.876;2023-02-02T12:33:26;99243.78;;;0.29;77.71
67842;BME280;54642;59.126;37.876;2023-02-02T12:41:28;99243.00;;;0.33;77.98
67842;BME280;54642;59.126;37.876;2023-02-02T12:44:06;99163.84;;;-0.11;77.74
67842;BME280;54642;59.126;37.876;2023-02-02T12:46:56;99233.44;;;0.23;77.67
67842;BME280;54642;59.126;37.876;2023-02-02T12:49:32;99260.03;;;0.34;77.64
67842;BME280;54642;59.126;37.876;2023-02-02T12:52:40;99237.84;;;0.29;77.73
67842;BME280;54642;59.126;37.876;2023-02-02T12:55:22;99244.00;;;0.38;77.68
67842;BME280;54642;59.126;37.876;2023-02-02T12:58:31;99229.38;;;0.31;77.80
67842;BME280;54642;59.126;37.876;2023-02-02T13:04:02;99238.09;;;0.41;77.78
67842;BME280;54642;59.126;37.876;2023-02-02T13:10:13;99170.81;;;-0.05;77.70
67842;BME280;54642;59.126;37.876;2023-02-02T13:15:35;99246.13;;;0.20;77.50
67842;BME280;54642;59.126;37.876;2023-02-02T13:18:10;99249.63;;;0.25;77.45
67842;BME280;54642;59.126;37.876;2023-02-02T13:20:53;99251.34;;;0.26;77.50
67842;BME280;54642;59.126;37.876;2023-02-02T13:23:25;99232.41;;;0.15;77.68
67842;BME280;54642;59.126;37.876;2023-02-02T13:26:06;99232.41;;;0.15;77.55
67842;BME280;54642;59.126;37.876;2023-02-02T13:28:43;99249.66;;;0.27;77.60
67842;BME280;54642;59.126;37.876;2023-02-02T13:31:16;99233.44;;;0.23;77.43
67842;BME280;54642;59.126;37.876;2023-02-02T13:33:48;99178.31;;;-0.10;77.48
67842;BME280;54642;59.126;37.876;2023-02-02T13:36:22;99230.00;;;0.21;77.28
67842;BME280;54642;59.126;37.876;2023-02-02T13:38:57;99254.06;;;0.34;77.46
67842;BME280;54642;59.126;37.876;2023-02-02T13:41:24;99259.84;;;0.27;77.40
67842;BME280;54642;59.126;37.876;2023-02-02T13:43:58;99268.88;;;0.14;77.33
67842;BME280;54642;59.126;37.876;2023-02-02T13:46:32;99212.25;;;-0.12;77.36
67842;BME280;54642;59.126;37.876;2023-02-02T13:49:09;99280.00;;;0.17;77.08
67842;BME280;54642;59.126;37.876;2023-02-02T14:02:41;99246.50;;;0.01;76.73
67842;BME280;54642;59.126;37.876;2023-02-02T14:05:20;99234.44;;;-0.07;76.52
67842;BME280;54642;59.126;37.876;2023-02-02T14:07:47;99264.41;;;0.04;76.81
67842;BME280;54642;59.126;37.876;2023-02-02T14:10:24;99268.75;;;0.08;76.83
67842;BME280;54642;59.126;37.876;2023-02-02T14:12:51;99259.97;;;-0.04;76.90
67842;BME280;54642;59.126;37.876;2023-02-02T14:15:18;99263.44;;;-0.02;76.96
67842;BME280;54642;59.126;37.876;2023-02-02T14:18:00;99268.63;;;0.03;76.90
67842;BME280;54642;59.126;37.876;2023-02-02T14:20:47;99267.84;;;0.06;76.79
67842;BME280;54642;59.126;37.876;2023-02-02T14:23:51;99278.09;;;0.09;76.77
67842;BME280;54642;59.126;37.876;2023-02-02T14:26:19;99249.72;;;-0.07;76.82
67842;BME280;54642;59.126;37.876;2023-02-02T14:34:50;99282.56;;;0.92;76.46
67842;BME280;54642;59.126;37.876;2023-02-02T14:45:45;99267.34;;;1.39;75.25
67842;BME280;54642;59.126;37.876;2023-02-02T14:58:23;99271.13;;;0.36;76.53
67842;BME280;54642;59.126;37.876;2023-02-02T15:25:53;99264.53;;;-0.25;76.90
67842;BME280;54642;59.126;37.876;2023-02-02T15:33:51;99305.81;;;-0.04;76.79
67842;BME280;54642;59.126;37.876;2023-02-02T15:36:22;99293.78;;;-0.09;77.09
67842;BME280;54642;59.126;37.876;2023-02-02T15:38:52;99300.72;;;-0.04;76.67
67842;BME280;54642;59.126;37.876;2023-02-02T15:41:30;99263.00;;;-0.18;76.40
67842;BME280;54642;59.126;37.876;2023-02-02T15:44:00;99258.56;;;-0.26;76.58
67842;BME280;54642;59.126;37.876;2023-02-02T15:46:31;99255.84;;;-0.33;76.64